Terminal Aerodrome Forecast
Issued by NWS Charleston, WV

Home | Current Version | Previous Version | Text Only | Print | Product List | Glossary On
Versions: 1 2 3 4 5 6 7 8 9 10 11 12 13 14 15 16 17 18 19 20 21
000
FTUS41 KRLX 020800 AAA
TAFEKN
TAF AMD
KEKN 020844Z 0209/0306 00000KT 1/4SM FG VV001
     FM021230 00000KT 2SM BR BKN002
     FM021400 VRB03KT 5SM BR SCT005
     FM021500 VRB03KT P6SM SCT250
     FM021700 VRB03KT P6SM FEW045 BKN250
     FM022300 00000KT P6SM SCT250
     FM030500 00000KT 4SM BR SCT001=

USA.gov is the U.S. government's official web portal to all federal, state and local government web resources and services.